Time;durP1;ratioP1;P1;durP2;ratioP2;P2;SDS_P1;SDS_P2;PMS_P1;PMS_P2;Temp;Humidity;BMP_temperature;BMP_pressure;BME280_temperature;BME280_humidity;BME280_pressure;Samples;Min_cycle;Max_cycle;Signal;HPM_P1;HPM_P2
2024/01/09 00:01:43;;;;;;;2.22;1.38;;;;;;;;;;5071665;28;20044;-80
2024/01/09 00:04:09;;;;;;;2.72;1.35;;;;;;;;;;5066119;28;20037;-80
2024/01/09 00:06:35;;;;;;;2.88;1.40;;;;;;;;;;5050330;28;20073;-80
2024/01/09 00:09:02;;;;;;;2.78;1.73;;;;;;;;;;5069736;28;20127;-80
2024/01/09 00:11:28;;;;;;;3.83;1.20;;;;;;;;;;5070310;28;20044;-81
2024/01/09 00:13:55;;;;;;;3.15;1.45;;;;;;;;;;5071679;28;20044;-80
2024/01/09 00:16:21;;;;;;;1.98;1.40;;;;;;;;;;5070224;28;20033;-80
2024/01/09 00:18:53;;;;;;;3.38;1.08;;;;;;;;;;5051892;28;20127;-80
2024/01/09 00:21:19;;;;;;;1.67;0.98;;;;;;;;;;5065242;28;20051;-80
2024/01/09 00:23:45;;;;;;;3.20;1.52;;;;;;;;;;5072139;28;20066;-80
2024/01/09 00:26:11;;;;;;;2.35;1.80;;;;;;;;;;5072571;28;20414;-80
2024/01/09 00:28:37;;;;;;;2.58;1.30;;;;;;;;;;5070829;28;20089;-81
2024/01/09 00:31:03;;;;;;;1.92;1.25;;;;;;;;;;5070478;28;20467;-80
2024/01/09 00:33:29;;;;;;;4.25;2.30;;;;;;;;;;5070471;28;20045;-81
2024/01/09 00:35:55;;;;;;;3.03;1.50;;;;;;;;;;5069762;28;20032;-80
2024/01/09 00:38:21;;;;;;;4.60;1.50;;;;;;;;;;5069469;28;20131;-80
2024/01/09 00:40:47;;;;;;;1.98;1.13;;;;;;;;;;5070792;28;20227;-80
2024/01/09 00:43:13;;;;;;;2.13;1.15;;;;;;;;;;5069907;28;20045;-80
2024/01/09 00:45:39;;;;;;;3.50;1.75;;;;;;;;;;5068731;28;20041;-80
2024/01/09 00:48:05;;;;;;;2.17;1.50;;;;;;;;;;5069029;28;20039;-80
2024/01/09 00:50:31;;;;;;;1.88;1.52;;;;;;;;;;5069102;28;20064;-81
2024/01/09 00:52:57;;;;;;;2.65;1.33;;;;;;;;;;5070686;28;20110;-81
2024/01/09 00:55:23;;;;;;;3.72;1.30;;;;;;;;;;5069874;28;20505;-81
2024/01/09 00:57:49;;;;;;;2.67;1.98;;;;;;;;;;5065854;28;20150;-81
2024/01/09 01:00:15;;;;;;;1.50;1.23;;;;;;;;;;5071727;28;20435;-81
2024/01/09 01:02:41;;;;;;;3.00;1.50;;;;;;;;;;5068725;28;20502;-80
2024/01/09 01:05:07;;;;;;;1.38;0.85;;;;;;;;;;5069442;28;20092;-80
2024/01/09 01:07:33;;;;;;;3.38;1.52;;;;;;;;;;5066298;28;20403;-80
2024/01/09 01:09:59;;;;;;;1.92;1.58;;;;;;;;;;5073527;28;20039;-80
2024/01/09 01:12:25;;;;;;;1.27;0.93;;;;;;;;;;5068064;28;20548;-80
2024/01/09 01:14:51;;;;;;;1.70;1.10;;;;;;;;;;5070566;28;20040;-80
2024/01/09 01:17:17;;;;;;;2.53;1.38;;;;;;;;;;5071403;28;20507;-80
2024/01/09 01:19:43;;;;;;;2.40;0.95;;;;;;;;;;5070361;28;20100;-80
2024/01/09 01:22:09;;;;;;;2.50;1.20;;;;;;;;;;5066486;28;20097;-81
2024/01/09 01:24:35;;;;;;;1.45;0.95;;;;;;;;;;5068311;28;20101;-81
2024/01/09 01:27:01;;;;;;;3.08;1.10;;;;;;;;;;5070120;28;20047;-81
2024/01/09 01:29:27;;;;;;;2.58;1.08;;;;;;;;;;5068164;28;20083;-80
2024/01/09 01:31:53;;;;;;;1.85;1.17;;;;;;;;;;5069662;28;20048;-80
2024/01/09 01:34:19;;;;;;;1.48;0.82;;;;;;;;;;5071284;28;20071;-80
2024/01/09 01:36:45;;;;;;;2.58;1.48;;;;;;;;;;5070125;28;20428;-80
2024/01/09 01:39:11;;;;;;;2.88;1.10;;;;;;;;;;5067563;28;20066;-80
2024/01/09 01:41:37;;;;;;;2.17;0.90;;;;;;;;;;5067426;28;20055;-80
2024/01/09 01:44:14;;;;;;;1.10;1.00;;;;;;;;;;5070610;28;20036;-80
2024/01/09 01:46:40;;;;;;;3.33;1.27;;;;;;;;;;5068182;28;20487;-80
2024/01/09 01:49:06;;;;;;;1.90;1.25;;;;;;;;;;5071361;28;20123;-81
2024/01/09 01:51:32;;;;;;;2.75;1.50;;;;;;;;;;5067725;28;20106;-80
2024/01/09 01:53:58;;;;;;;2.22;1.48;;;;;;;;;;5071960;28;20032;-80
2024/01/09 01:56:24;;;;;;;1.27;0.88;;;;;;;;;;5068809;28;20036;-80
2024/01/09 01:58:50;;;;;;;3.10;1.15;;;;;;;;;;5071630;28;20071;-80
2024/01/09 02:01:16;;;;;;;2.67;1.13;;;;;;;;;;5065809;28;20094;-80
2024/01/09 02:03:42;;;;;;;2.85;1.10;;;;;;;;;;5069283;28;20097;-80
2024/01/09 02:06:09;;;;;;;2.00;1.23;;;;;;;;;;5067450;28;20512;-80
2024/01/09 02:08:36;;;;;;;1.63;1.52;;;;;;;;;;5068114;28;20414;-80
2024/01/09 02:11:02;;;;;;;2.40;1.85;;;;;;;;;;5076611;28;20056;-80
2024/01/09 02:13:28;;;;;;;1.55;0.90;;;;;;;;;;5056791;28;20047;-81
2024/01/09 02:15:54;;;;;;;1.73;0.60;;;;;;;;;;5071478;28;20044;-81
2024/01/09 02:18:20;;;;;;;2.50;1.30;;;;;;;;;;5058397;28;20036;-81
2024/01/09 02:20:46;;;;;;;2.30;0.80;;;;;;;;;;5059095;28;20041;-81
2024/01/09 02:23:12;;;;;;;1.48;1.00;;;;;;;;;;5056505;28;20104;-81
2024/01/09 02:25:38;;;;;;;2.03;0.90;;;;;;;;;;5057446;28;20047;-81
2024/01/09 02:28:10;;;;;;;1.35;0.90;;;;;;;;;;5059464;28;20123;-81
2024/01/09 02:30:37;;;;;;;1.60;1.10;;;;;;;;;;5084556;28;20036;-81
2024/01/09 02:33:03;;;;;;;2.88;1.48;;;;;;;;;;5070554;28;20106;-81
2024/01/09 02:35:29;;;;;;;2.40;1.20;;;;;;;;;;5072237;28;20488;-81
2024/01/09 02:37:55;;;;;;;2.65;1.42;;;;;;;;;;5052779;28;20040;-81
2024/01/09 02:40:22;;;;;;;1.70;1.20;;;;;;;;;;5071410;28;20033;-81
2024/01/09 02:42:48;;;;;;;2.45;1.20;;;;;;;;;;5073794;28;20040;-81
2024/01/09 02:45:14;;;;;;;2.83;1.65;;;;;;;;;;5058144;28;20441;-81
2024/01/09 02:47:40;;;;;;;1.63;0.90;;;;;;;;;;5059182;28;20044;-81
2024/01/09 02:50:06;;;;;;;1.80;1.33;;;;;;;;;;5079881;28;20042;-81
2024/01/09 02:52:32;;;;;;;2.00;1.25;;;;;;;;;;5062153;28;20036;-81
2024/01/09 02:54:58;;;;;;;3.42;1.40;;;;;;;;;;5062107;28;20386;-81
2024/01/09 02:57:24;;;;;;;2.17;1.17;;;;;;;;;;5078736;28;20125;-81
2024/01/09 02:59:50;;;;;;;3.03;1.35;;;;;;;;;;5080197;28;20037;-81
2024/01/09 03:02:16;;;;;;;1.75;0.90;;;;;;;;;;5076491;28;20065;-81
2024/01/09 03:04:42;;;;;;;1.75;1.15;;;;;;;;;;5074261;28;20052;-81
2024/01/09 03:07:08;;;;;;;1.85;0.98;;;;;;;;;;5073672;28;20047;-81
2024/01/09 03:09:36;;;;;;;1.40;0.85;;;;;;;;;;5077949;28;20036;-80
2024/01/09 03:12:03;;;;;;;3.42;1.08;;;;;;;;;;5060219;28;20052;-81
2024/01/09 03:14:29;;;;;;;2.13;1.13;;;;;;;;;;5077049;28;20047;-81
2024/01/09 03:16:55;;;;;;;2.03;1.65;;;;;;;;;;5078875;28;20044;-81
2024/01/09 03:19:21;;;;;;;3.70;1.33;;;;;;;;;;5071710;28;20086;-81
2024/01/09 03:21:48;;;;;;;1.20;0.75;;;;;;;;;;5071690;28;20118;-81
2024/01/09 03:24:15;;;;;;;1.23;1.13;;;;;;;;;;5073558;28;20041;-81
2024/01/09 03:26:41;;;;;;;2.08;1.23;;;;;;;;;;5059135;28;20376;-81
2024/01/09 03:29:07;;;;;;;2.53;1.35;;;;;;;;;;5057330;28;20045;-81
2024/01/09 03:31:33;;;;;;;3.00;1.30;;;;;;;;;;5073155;28;20045;-81
2024/01/09 03:33:59;;;;;;;2.35;1.17;;;;;;;;;;5073892;28;20514;-81
2024/01/09 03:36:26;;;;;;;2.97;0.63;;;;;;;;;;5058517;28;20044;-81
2024/01/09 03:38:53;;;;;;;3.55;0.95;;;;;;;;;;5059708;28;20029;-81
2024/01/09 03:41:19;;;;;;;1.50;1.30;;;;;;;;;;5076517;28;20403;-81
2024/01/09 03:43:45;;;;;;;2.40;1.33;;;;;;;;;;5075547;28;20498;-81
2024/01/09 03:46:11;;;;;;;2.45;1.20;;;;;;;;;;5077309;28;20041;-81
2024/01/09 03:48:37;;;;;;;2.95;0.95;;;;;;;;;;5078434;28;20060;-81
2024/01/09 03:51:03;;;;;;;3.33;1.17;;;;;;;;;;5071877;28;20024;-81
2024/01/09 03:53:29;;;;;;;1.80;0.95;;;;;;;;;;5094319;28;20043;-81
2024/01/09 03:55:55;;;;;;;2.80;1.05;;;;;;;;;;5093501;28;20632;-81
2024/01/09 03:58:21;;;;;;;0.70;0.68;;;;;;;;;;5094437;28;20037;-81
2024/01/09 04:00:47;;;;;;;2.28;1.00;;;;;;;;;;5075427;28;20032;-81
2024/01/09 04:03:13;;;;;;;2.40;0.93;;;;;;;;;;5075991;28;20103;-81
2024/01/09 04:05:39;;;;;;;1.50;0.80;;;;;;;;;;5061592;28;20083;-81
2024/01/09 04:08:05;;;;;;;2.40;1.35;;;;;;;;;;5060610;28;20041;-80
2024/01/09 04:10:31;;;;;;;1.73;0.98;;;;;;;;;;5078343;28;20044;-81
2024/01/09 04:12:57;;;;;;;2.83;1.80;;;;;;;;;;5076440;28;20423;-81
2024/01/09 04:15:23;;;;;;;1.67;0.85;;;;;;;;;;5074875;28;20052;-80
2024/01/09 04:17:49;;;;;;;1.40;0.75;;;;;;;;;;5075976;28;20041;-81
2024/01/09 04:20:15;;;;;;;1.60;1.02;;;;;;;;;;5072726;28;20067;-81
2024/01/09 04:22:41;;;;;;;1.65;1.13;;;;;;;;;;5075956;28;20442;-81
2024/01/09 04:25:08;;;;;;;2.13;1.08;;;;;;;;;;5076672;28;20071;-80
2024/01/09 04:27:34;;;;;;;2.35;0.68;;;;;;;;;;5076869;28;20062;-80
2024/01/09 04:30:00;;;;;;;1.88;1.17;;;;;;;;;;5075229;28;20131;-81
2024/01/09 04:32:26;;;;;;;1.42;1.25;;;;;;;;;;5074834;28;20482;-80
2024/01/09 04:34:53;;;;;;;2.28;0.95;;;;;;;;;;5075459;28;20044;-81
2024/01/09 04:37:19;;;;;;;1.85;0.90;;;;;;;;;;5070248;28;20040;-81
2024/01/09 04:39:45;;;;;;;1.95;0.93;;;;;;;;;;5074812;28;20094;-81
2024/01/09 04:42:11;;;;;;;3.72;1.15;;;;;;;;;;5075842;28;20043;-81
2024/01/09 04:44:37;;;;;;;1.27;1.10;;;;;;;;;;5073526;28;20076;-81
2024/01/09 04:47:03;;;;;;;1.30;1.08;;;;;;;;;;5076630;28;20036;-80
2024/01/09 04:49:29;;;;;;;3.33;1.10;;;;;;;;;;5074631;28;20070;-81
2024/01/09 04:51:55;;;;;;;2.63;1.23;;;;;;;;;;5086021;28;20043;-81
2024/01/09 04:54:21;;;;;;;1.33;0.75;;;;;;;;;;5074315;28;20040;-81
2024/01/09 04:56:47;;;;;;;1.73;1.23;;;;;;;;;;5070637;28;20048;-81
2024/01/09 04:59:13;;;;;;;3.90;1.00;;;;;;;;;;5074313;28;20040;-81
2024/01/09 05:01:39;;;;;;;1.85;0.80;;;;;;;;;;5074849;28;20048;-81
2024/01/09 05:04:05;;;;;;;2.22;1.10;;;;;;;;;;5071708;28;20096;-81
2024/01/09 05:06:31;;;;;;;1.35;1.15;;;;;;;;;;5074459;28;20044;-80
2024/01/09 05:08:57;;;;;;;2.33;0.90;;;;;;;;;;5073081;28;20074;-80
2024/01/09 05:11:23;;;;;;;2.42;1.00;;;;;;;;;;5071293;28;20037;-81
2024/01/09 05:13:49;;;;;;;1.85;0.90;;;;;;;;;;5073655;28;20045;-81
2024/01/09 05:16:15;;;;;;;2.70;0.98;;;;;;;;;;5073570;28;20075;-81
2024/01/09 05:18:41;;;;;;;2.15;0.90;;;;;;;;;;5068981;28;20048;-81
2024/01/09 05:21:07;;;;;;;1.73;1.00;;;;;;;;;;5070933;28;20040;-81
2024/01/09 05:23:33;;;;;;;1.45;0.90;;;;;;;;;;5070326;28;20503;-81
2024/01/09 05:25:59;;;;;;;3.55;1.15;;;;;;;;;;5070202;28;20039;-81
2024/01/09 05:28:25;;;;;;;1.25;0.88;;;;;;;;;;5071382;28;20056;-81
2024/01/09 05:30:51;;;;;;;1.33;1.02;;;;;;;;;;5072100;28;20049;-81
2024/01/09 05:33:18;;;;;;;2.55;0.75;;;;;;;;;;5068668;28;20059;-81
2024/01/09 05:35:44;;;;;;;2.88;1.27;;;;;;;;;;5072546;28;20044;-81
2024/01/09 05:38:10;;;;;;;2.53;1.13;;;;;;;;;;5074145;28;20443;-81
2024/01/09 05:40:36;;;;;;;2.65;1.05;;;;;;;;;;5074925;28;20044;-80
2024/01/09 05:43:02;;;;;;;2.10;0.90;;;;;;;;;;5067685;28;20036;-81
2024/01/09 05:45:28;;;;;;;1.20;0.98;;;;;;;;;;5071052;28;20036;-81
2024/01/09 05:47:54;;;;;;;1.38;0.90;;;;;;;;;;5071639;28;20036;-81
2024/01/09 05:50:20;;;;;;;3.35;1.20;;;;;;;;;;5076200;28;20032;-81
2024/01/09 05:52:46;;;;;;;2.15;1.17;;;;;;;;;;5078315;28;20407;-81
2024/01/09 05:55:12;;;;;;;3.13;1.02;;;;;;;;;;5080053;28;20233;-81
2024/01/09 05:57:38;;;;;;;1.30;1.00;;;;;;;;;;5080219;28;20556;-81
2024/01/09 06:00:04;;;;;;;1.55;0.68;;;;;;;;;;5079558;28;20036;-81
2024/01/09 06:02:31;;;;;;;4.18;1.67;;;;;;;;;;5083899;28;20131;-81
2024/01/09 06:04:57;;;;;;;3.67;1.05;;;;;;;;;;5078405;28;20072;-81
2024/01/09 06:07:24;;;;;;;2.55;1.13;;;;;;;;;;5077528;28;20060;-81
2024/01/09 06:09:50;;;;;;;2.08;0.85;;;;;;;;;;5076598;28;20048;-81
2024/01/09 06:12:16;;;;;;;2.47;1.13;;;;;;;;;;5076744;28;20032;-81
2024/01/09 06:14:42;;;;;;;1.30;1.17;;;;;;;;;;5068004;28;20048;-81
2024/01/09 06:17:08;;;;;;;1.73;1.30;;;;;;;;;;5077889;28;20391;-81
2024/01/09 06:19:35;;;;;;;1.98;1.10;;;;;;;;;;5076872;28;20040;-80
2024/01/09 06:22:01;;;;;;;2.53;1.23;;;;;;;;;;5079992;28;20128;-81
2024/01/09 06:24:27;;;;;;;2.28;1.27;;;;;;;;;;5080449;28;20499;-81
2024/01/09 06:26:53;;;;;;;2.78;1.20;;;;;;;;;;5081449;28;20044;-81
2024/01/09 06:29:18;;;;;;;1.77;1.13;;;;;;;;;;5080378;28;20032;-81
2024/01/09 06:31:44;;;;;;;4.45;1.10;;;;;;;;;;5086635;28;20040;-82
2024/01/09 06:34:10;;;;;;;1.77;1.17;;;;;;;;;;5074511;28;20032;-82
2024/01/09 06:36:36;;;;;;;2.95;0.80;;;;;;;;;;5075143;28;20032;-81
2024/01/09 06:39:02;;;;;;;1.20;1.08;;;;;;;;;;5073997;28;20464;-82
2024/01/09 06:41:29;;;;;;;1.92;1.10;;;;;;;;;;5072750;28;20044;-82
2024/01/09 06:43:55;;;;;;;2.22;0.90;;;;;;;;;;5075299;28;20041;-83
2024/01/09 06:46:21;;;;;;;2.17;0.77;;;;;;;;;;5071740;28;20131;-84
2024/01/09 06:48:47;;;;;;;2.15;1.10;;;;;;;;;;5052668;28;20040;-83
2024/01/09 06:51:13;;;;;;;1.67;0.75;;;;;;;;;;5055809;28;20044;-82
2024/01/09 06:53:39;;;;;;;4.72;1.35;;;;;;;;;;5072068;28;20041;-83
2024/01/09 06:56:05;;;;;;;1.45;0.90;;;;;;;;;;5070713;28;20076;-82
2024/01/09 06:58:31;;;;;;;2.88;1.38;;;;;;;;;;5071817;28;20041;-82
2024/01/09 07:00:58;;;;;;;1.00;0.73;;;;;;;;;;5067772;28;20039;-81
2024/01/09 07:03:24;;;;;;;2.63;1.10;;;;;;;;;;5072798;28;20104;-82
2024/01/09 07:05:50;;;;;;;2.42;1.23;;;;;;;;;;5059406;28;20040;-82
2024/01/09 07:08:16;;;;;;;1.27;1.00;;;;;;;;;;5059543;28;20055;-83
2024/01/09 07:10:42;;;;;;;1.58;0.95;;;;;;;;;;5078365;28;20043;-82
2024/01/09 07:13:08;;;;;;;2.55;0.90;;;;;;;;;;5074886;28;20038;-82
2024/01/09 07:15:36;;;;;;;1.98;1.30;;;;;;;;;;5057466;28;20123;-82
2024/01/09 07:18:02;;;;;;;2.17;0.82;;;;;;;;;;5080358;28;20119;-83
2024/01/09 07:20:28;;;;;;;3.65;1.50;;;;;;;;;;5080988;28;20032;-84
2024/01/09 07:22:54;;;;;;;2.55;0.85;;;;;;;;;;5082490;28;20071;-82
2024/01/09 07:25:20;;;;;;;1.42;0.98;;;;;;;;;;5073461;28;20036;-82
2024/01/09 07:27:46;;;;;;;3.35;0.80;;;;;;;;;;5075711;28;20086;-83
2024/01/09 07:30:13;;;;;;;2.45;1.10;;;;;;;;;;5072247;28;20178;-82
2024/01/09 07:32:39;;;;;;;3.28;1.70;;;;;;;;;;5071656;28;20071;-84
2024/01/09 07:35:06;;;;;;;4.95;1.33;;;;;;;;;;5073288;28;20386;-82
2024/01/09 07:37:31;;;;;;;5.50;1.67;;;;;;;;;;5074030;28;20080;-83
2024/01/09 07:39:57;;;;;;;1.30;1.10;;;;;;;;;;5075806;28;20090;-82
2024/01/09 07:42:23;;;;;;;2.55;1.02;;;;;;;;;;5070547;28;20090;-81
2024/01/09 07:44:50;;;;;;;2.58;1.33;;;;;;;;;;5070180;28;20041;-82
2024/01/09 07:47:16;;;;;;;3.95;1.23;;;;;;;;;;5056619;28;20052;-83
2024/01/09 07:49:42;;;;;;;3.72;1.73;;;;;;;;;;5071208;28;20432;-82
2024/01/09 07:52:09;;;;;;;2.38;0.95;;;;;;;;;;5065568;28;20043;-83
2024/01/09 07:54:35;;;;;;;1.30;1.05;;;;;;;;;;5059910;28;20038;-84
2024/01/09 07:57:01;;;;;;;1.42;0.90;;;;;;;;;;5066765;28;20508;-85
2024/01/09 07:59:27;;;;;;;1.77;0.80;;;;;;;;;;5056119;28;20109;-84
2024/01/09 08:01:54;;;;;;;4.03;1.63;;;;;;;;;;5073869;28;20131;-85
2024/01/09 08:04:24;;;;;;;1.45;0.85;;;;;;;;;;5067703;28;20044;-85
2024/01/09 08:06:53;;;;;;;1.50;1.35;;;;;;;;;;5056960;28;20040;-84
2024/01/09 08:09:19;;;;;;;2.67;1.60;;;;;;;;;;5071657;28;20040;-84
2024/01/09 08:11:46;;;;;;;2.20;0.98;;;;;;;;;;5082362;28;20036;-85
2024/01/09 08:14:12;;;;;;;2.55;1.55;;;;;;;;;;5053418;28;20086;-85
2024/01/09 08:16:38;;;;;;;1.23;1.13;;;;;;;;;;5068506;28;20467;-84
2024/01/09 08:19:04;;;;;;;2.15;1.58;;;;;;;;;;5071570;28;20032;-85
2024/01/09 08:21:31;;;;;;;2.22;1.20;;;;;;;;;;5064311;28;20049;-85
2024/01/09 08:23:57;;;;;;;2.33;1.40;;;;;;;;;;5072152;28;20049;-85
2024/01/09 08:26:23;;;;;;;2.20;1.38;;;;;;;;;;5052307;28;20094;-84
2024/01/09 08:28:49;;;;;;;1.92;0.95;;;;;;;;;;5065260;28;20063;-85
2024/01/09 08:31:16;;;;;;;3.75;1.63;;;;;;;;;;5068796;28;20443;-85
2024/01/09 08:33:42;;;;;;;1.70;0.95;;;;;;;;;;5063803;28;20060;-85
2024/01/09 08:36:08;;;;;;;1.30;1.08;;;;;;;;;;5070971;28;20214;-86
2024/01/09 08:38:35;;;;;;;1.50;1.02;;;;;;;;;;5051326;28;20048;-86
2024/01/09 08:41:02;;;;;;;2.05;1.40;;;;;;;;;;5083644;28;20065;-85
2024/01/09 08:43:28;;;;;;;2.40;0.88;;;;;;;;;;5064545;28;20510;-85
2024/01/09 08:45:54;;;;;;;2.15;0.93;;;;;;;;;;5061895;28;20172;-85
2024/01/09 08:48:20;;;;;;;4.57;1.35;;;;;;;;;;5083372;28;20060;-85
2024/01/09 08:50:48;;;;;;;1.70;1.42;;;;;;;;;;5053354;28;20593;-84
2024/01/09 08:53:14;;;;;;;2.85;0.95;;;;;;;;;;5073843;28;20040;-83
2024/01/09 08:55:40;;;;;;;2.38;1.23;;;;;;;;;;5048954;28;20040;-83
2024/01/09 08:58:06;;;;;;;3.28;1.30;;;;;;;;;;5074720;28;20040;-83
2024/01/09 09:00:32;;;;;;;1.05;0.95;;;;;;;;;;5061771;28;20040;-84
2024/01/09 09:03:07;;;;;;;1.98;1.30;;;;;;;;;;5053461;28;20037;-86
2024/01/09 09:05:33;;;;;;;2.72;1.15;;;;;;;;;;5046542;28;20109;-85
2024/01/09 09:07:59;;;;;;;2.20;1.42;;;;;;;;;;5064614;28;20044;-85
2024/01/09 09:10:25;;;;;;;2.95;1.50;;;;;;;;;;5062191;28;20053;-85
2024/01/09 09:12:51;;;;;;;2.80;1.45;;;;;;;;;;5051458;28;20032;-85
2024/01/09 09:15:17;;;;;;;1.77;0.95;;;;;;;;;;5048236;28;20044;-86
2024/01/09 09:17:43;;;;;;;1.52;0.88;;;;;;;;;;5067318;28;20044;-85
2024/01/09 09:20:11;;;;;;;4.00;1.48;;;;;;;;;;5054927;28;20036;-85
2024/01/09 09:22:38;;;;;;;1.17;0.82;;;;;;;;;;5066709;28;20041;-85
2024/01/09 09:25:04;;;;;;;2.08;1.10;;;;;;;;;;5071814;28;20037;-85
2024/01/09 09:27:30;;;;;;;1.90;1.00;;;;;;;;;;5052390;28;20044;-87
2024/01/09 09:29:56;;;;;;;2.88;1.33;;;;;;;;;;5055668;28;20135;-86
2024/01/09 09:32:22;;;;;;;4.40;1.50;;;;;;;;;;5055460;28;20080;-87
2024/01/09 09:34:49;;;;;;;2.42;1.33;;;;;;;;;;5067171;28;20079;-87
2024/01/09 09:37:15;;;;;;;1.95;1.20;;;;;;;;;;5060491;28;20403;-87
2024/01/09 09:39:41;;;;;;;6.07;1.52;;;;;;;;;;5061646;28;20074;-87
2024/01/09 09:42:08;;;;;;;1.27;0.95;;;;;;;;;;5065606;28;20100;-87
2024/01/09 09:44:36;;;;;;;1.45;0.93;;;;;;;;;;5070231;28;20044;-87
2024/01/09 09:47:03;;;;;;;2.97;1.30;;;;;;;;;;5054487;28;20047;-87
2024/01/09 09:49:30;;;;;;;2.10;1.38;;;;;;;;;;5055810;28;20040;-87
2024/01/09 09:51:56;;;;;;;2.40;1.20;;;;;;;;;;5058360;28;20380;-87
2024/01/09 09:54:23;;;;;;;2.28;0.88;;;;;;;;;;5053352;28;20037;-87
2024/01/09 09:56:49;;;;;;;3.47;1.77;;;;;;;;;;5069820;28;20495;-87
2024/01/09 09:59:16;;;;;;;2.05;1.52;;;;;;;;;;5053325;28;20507;-87
2024/01/09 10:01:42;;;;;;;3.22;1.45;;;;;;;;;;5065861;28;20085;-87
2024/01/09 10:04:16;;;;;;;1.23;0.50;;;;;;;;;;5070645;28;20340;-87
2024/01/09 10:06:44;;;;;;;1.85;1.25;;;;;;;;;;5066063;28;20039;-88
2024/01/09 10:09:13;;;;;;;2.60;1.33;;;;;;;;;;5053747;28;20040;-87
2024/01/09 10:11:39;;;;;;;3.08;1.05;;;;;;;;;;5053632;28;20120;-88
2024/01/09 10:14:07;;;;;;;2.08;1.10;;;;;;;;;;5053566;28;20068;-88
2024/01/09 10:16:48;;;;;;;1.63;0.98;;;;;;;;;;5069964;28;20120;-87
2024/01/09 10:19:14;;;;;;;2.15;1.17;;;;;;;;;;5050442;28;20036;-87
2024/01/09 10:21:40;;;;;;;2.63;1.67;;;;;;;;;;5070156;28;20518;-87
2024/01/09 10:24:08;;;;;;;3.13;1.00;;;;;;;;;;5053188;28;20047;-87
2024/01/09 10:26:34;;;;;;;4.72;2.00;;;;;;;;;;5052310;28;20414;-87
2024/01/09 10:29:01;;;;;;;3.08;1.02;;;;;;;;;;5070236;28;20048;-86
2024/01/09 10:31:29;;;;;;;2.00;1.33;;;;;;;;;;5053161;28;20396;-87
2024/01/09 10:33:56;;;;;;;1.60;0.70;;;;;;;;;;5069968;28;20128;-85
2024/01/09 10:36:22;;;;;;;2.35;1.08;;;;;;;;;;5057088;28;20037;-87
2024/01/09 10:38:48;;;;;;;2.50;1.40;;;;;;;;;;5067758;28;20047;-86
2024/01/09 10:41:18;;;;;;;1.77;1.10;;;;;;;;;;5077039;28;20040;-86
2024/01/09 10:43:45;;;;;;;1.52;0.93;;;;;;;;;;5056313;28;20542;-87
2024/01/09 10:46:11;;;;;;;1.00;0.82;;;;;;;;;;5073178;28;20094;-87
2024/01/09 10:48:39;;;;;;;2.88;1.05;;;;;;;;;;5056928;28;20094;-87
2024/01/09 10:51:05;;;;;;;2.67;1.45;;;;;;;;;;5056982;28;20039;-87
2024/01/09 10:53:32;;;;;;;1.80;1.35;;;;;;;;;;5073061;28;20075;-86
2024/01/09 10:56:00;;;;;;;3.53;1.65;;;;;;;;;;5057391;28;20429;-86
2024/01/09 10:58:26;;;;;;;2.55;1.55;;;;;;;;;;5056075;28;20110;-86
2024/01/09 11:00:52;;;;;;;3.60;1.35;;;;;;;;;;5073659;28;20033;-87
2024/01/09 11:03:19;;;;;;;2.72;1.35;;;;;;;;;;5057177;28;20039;-87
2024/01/09 11:05:46;;;;;;;1.98;1.38;;;;;;;;;;5073315;28;20040;-87
2024/01/09 11:08:18;;;;;;;2.95;1.27;;;;;;;;;;5055960;28;20036;-87
2024/01/09 11:10:44;;;;;;;4.80;1.35;;;;;;;;;;5075452;28;20040;-86
2024/01/09 11:13:12;;;;;;;2.88;0.98;;;;;;;;;;5073465;28;20128;-87
2024/01/09 11:15:44;;;;;;;2.70;1.35;;;;;;;;;;5056154;28;20483;-87
2024/01/09 11:18:17;;;;;;;1.77;1.35;;;;;;;;;;5073823;28;20066;-87
2024/01/09 11:20:43;;;;;;;1.85;1.30;;;;;;;;;;5055666;28;20442;-86
2024/01/09 11:23:11;;;;;;;2.25;1.05;;;;;;;;;;5073525;28;20071;-87
2024/01/09 11:25:37;;;;;;;1.85;1.45;;;;;;;;;;5056404;28;20090;-87
2024/01/09 11:28:03;;;;;;;1.30;0.90;;;;;;;;;;5057954;28;20402;-87
2024/01/09 11:30:31;;;;;;;2.15;1.15;;;;;;;;;;5056060;28;20075;-86
2024/01/09 11:32:58;;;;;;;3.40;1.50;;;;;;;;;;5072657;28;20056;-88
2024/01/09 11:35:26;;;;;;;3.97;1.00;;;;;;;;;;5056633;28;20056;-87
2024/01/09 11:37:52;;;;;;;2.05;1.25;;;;;;;;;;5058552;28;20070;-87
2024/01/09 11:40:19;;;;;;;1.95;1.35;;;;;;;;;;5075438;28;20047;-87
2024/01/09 11:42:45;;;;;;;1.60;0.82;;;;;;;;;;5058705;28;20064;-87
2024/01/09 11:45:12;;;;;;;1.95;1.02;;;;;;;;;;5076939;28;20102;-87
2024/01/09 11:47:38;;;;;;;1.45;1.05;;;;;;;;;;5074339;28;20044;-87
2024/01/09 11:50:05;;;;;;;2.97;1.10;;;;;;;;;;5072720;28;20032;-86
2024/01/09 11:52:32;;;;;;;3.10;1.33;;;;;;;;;;5055351;28;20380;-87
2024/01/09 11:54:58;;;;;;;2.67;1.48;;;;;;;;;;5056608;28;20480;-87
2024/01/09 11:57:24;;;;;;;1.83;1.17;;;;;;;;;;5072906;28;20097;-87
2024/01/09 11:59:50;;;;;;;1.85;1.17;;;;;;;;;;5072370;28;20033;-86
2024/01/09 12:02:19;;;;;;;3.45;1.10;;;;;;;;;;5055703;28;20047;-86
2024/01/09 12:04:45;;;;;;;1.48;1.13;;;;;;;;;;5055434;28;20052;-87
2024/01/09 12:07:12;;;;;;;3.05;1.00;;;;;;;;;;5055495;28;20039;-86
2024/01/09 12:09:38;;;;;;;3.10;1.55;;;;;;;;;;5073009;28;20051;-86
2024/01/09 12:12:08;;;;;;;2.83;1.48;;;;;;;;;;5074677;28;20108;-87
2024/01/09 12:14:34;;;;;;;1.25;0.80;;;;;;;;;;5072111;28;20068;-87
2024/01/09 12:17:00;;;;;;;2.67;1.40;;;;;;;;;;5073283;28;20032;-87
2024/01/09 12:19:26;;;;;;;3.60;1.48;;;;;;;;;;5072056;28;20044;-87
2024/01/09 12:21:52;;;;;;;2.35;1.73;;;;;;;;;;5054622;28;20043;-86
2024/01/09 12:24:18;;;;;;;4.68;1.80;;;;;;;;;;5072100;28;20032;-86
2024/01/09 12:26:45;;;;;;;2.42;1.20;;;;;;;;;;5072309;28;20044;-86
2024/01/09 12:29:11;;;;;;;1.80;0.85;;;;;;;;;;5072354;28;20503;-87
2024/01/09 12:31:38;;;;;;;3.55;1.00;;;;;;;;;;5071518;28;20057;-87
2024/01/09 12:34:04;;;;;;;3.83;1.30;;;;;;;;;;5072453;28;20462;-87
2024/01/09 12:36:31;;;;;;;2.90;1.17;;;;;;;;;;5054485;28;20043;-86
2024/01/09 12:38:58;;;;;;;1.60;1.23;;;;;;;;;;5071917;28;20037;-86
2024/01/09 12:41:24;;;;;;;1.63;1.15;;;;;;;;;;5071911;28;20116;-87
2024/01/09 12:43:51;;;;;;;2.45;1.05;;;;;;;;;;5055135;28;20028;-86
2024/01/09 12:46:17;;;;;;;2.55;1.20;;;;;;;;;;5055237;28;20033;-86
2024/01/09 12:48:43;;;;;;;1.20;0.80;;;;;;;;;;5072959;28;20144;-86
2024/01/09 12:51:09;;;;;;;2.13;1.42;;;;;;;;;;5056195;28;20060;-87
2024/01/09 12:53:36;;;;;;;2.83;1.60;;;;;;;;;;5072699;28;20045;-86
2024/01/09 12:56:02;;;;;;;1.83;1.30;;;;;;;;;;5075904;28;20525;-86
2024/01/09 12:58:28;;;;;;;1.60;1.05;;;;;;;;;;5072010;28;20033;-86
2024/01/09 13:00:54;;;;;;;2.45;1.30;;;;;;;;;;5058539;28;20028;-86
2024/01/09 13:03:20;;;;;;;2.38;1.08;;;;;;;;;;5061494;28;20036;-86
2024/01/09 13:05:46;;;;;;;3.17;1.30;;;;;;;;;;5059094;28;20444;-86
2024/01/09 13:08:12;;;;;;;1.02;0.80;;;;;;;;;;5054968;28;20037;-85
2024/01/09 13:10:38;;;;;;;1.67;0.90;;;;;;;;;;5069615;28;20085;-86
2024/01/09 13:13:04;;;;;;;2.45;1.40;;;;;;;;;;5054220;28;20086;-86
2024/01/09 13:15:30;;;;;;;3.50;1.00;;;;;;;;;;5053217;28;20040;-86
2024/01/09 13:17:56;;;;;;;2.25;1.25;;;;;;;;;;5070259;28;20094;-86
2024/01/09 13:20:23;;;;;;;1.17;0.85;;;;;;;;;;5053677;28;20036;-86
2024/01/09 13:22:49;;;;;;;1.23;1.10;;;;;;;;;;5070174;28;20044;-86
2024/01/09 13:25:15;;;;;;;1.30;1.20;;;;;;;;;;5070522;28;20051;-86
2024/01/09 13:27:43;;;;;;;1.80;0.80;;;;;;;;;;5069667;28;20045;-86
2024/01/09 13:30:09;;;;;;;2.25;1.30;;;;;;;;;;5070068;28;20036;-87
2024/01/09 13:32:35;;;;;;;1.42;0.80;;;;;;;;;;5069476;28;20052;-87
2024/01/09 13:35:01;;;;;;;1.35;1.23;;;;;;;;;;5070916;28;20491;-85
2024/01/09 13:37:27;;;;;;;1.58;1.02;;;;;;;;;;5053197;28;20064;-85
2024/01/09 13:39:53;;;;;;;1.00;0.68;;;;;;;;;;5070373;28;20043;-86
2024/01/09 13:42:19;;;;;;;1.70;1.13;;;;;;;;;;5069949;28;20513;-86
2024/01/09 13:44:45;;;;;;;1.52;0.80;;;;;;;;;;5053083;28;20127;-85
2024/01/09 13:47:11;;;;;;;1.73;1.00;;;;;;;;;;5053595;28;20199;-86
2024/01/09 13:49:37;;;;;;;1.33;1.15;;;;;;;;;;5069137;28;20033;-85
2024/01/09 13:52:03;;;;;;;3.17;1.08;;;;;;;;;;5049308;28;20041;-85
2024/01/09 13:54:29;;;;;;;1.63;1.10;;;;;;;;;;5054322;28;20372;-85
2024/01/09 13:56:57;;;;;;;2.85;1.08;;;;;;;;;;5053260;28;20115;-86
2024/01/09 13:59:23;;;;;;;1.90;1.08;;;;;;;;;;5053251;28;20060;-86
2024/01/09 14:01:49;;;;;;;2.30;0.90;;;;;;;;;;5069310;28;20127;-86
2024/01/09 14:04:15;;;;;;;2.95;1.17;;;;;;;;;;5069890;28;20037;-85
2024/01/09 14:06:49;;;;;;;2.30;1.17;;;;;;;;;;5070824;28;20114;-85
2024/01/09 14:09:15;;;;;;;1.70;1.10;;;;;;;;;;5072995;28;20407;-85
2024/01/09 14:11:41;;;;;;;1.95;1.17;;;;;;;;;;5076380;28;20431;-86
2024/01/09 14:14:07;;;;;;;2.25;1.15;;;;;;;;;;5079693;28;20044;-85
2024/01/09 14:16:33;;;;;;;2.67;1.00;;;;;;;;;;5079934;28;20040;-83
2024/01/09 14:18:59;;;;;;;2.28;1.08;;;;;;;;;;5062354;28;20502;-85
2024/01/09 14:21:26;;;;;;;2.28;1.02;;;;;;;;;;5076071;28;20127;-85
2024/01/09 14:23:52;;;;;;;2.85;1.00;;;;;;;;;;5058244;28;20063;-85
2024/01/09 14:26:20;;;;;;;1.83;0.95;;;;;;;;;;5075457;28;20399;-84
2024/01/09 14:28:46;;;;;;;1.17;0.90;;;;;;;;;;5075280;28;20048;-84
2024/01/09 14:31:12;;;;;;;1.30;0.73;;;;;;;;;;5057711;28;20063;-86
2024/01/09 14:33:38;;;;;;;1.52;0.68;;;;;;;;;;5073772;28;20048;-86
2024/01/09 14:36:04;;;;;;;1.67;1.08;;;;;;;;;;5057627;28;20060;-86
2024/01/09 14:38:31;;;;;;;1.15;0.70;;;;;;;;;;5056294;28;20041;-85